createdAt,value
2022-12-31T00:02:27.978Z,18.55
2022-12-31T00:04:59.555Z,18.77
2022-12-31T00:07:30.267Z,18.00
2022-12-31T00:10:00.825Z,17.02
2022-12-31T00:12:31.416Z,17.17
2022-12-31T00:15:02.254Z,17.20
2022-12-31T00:17:33.438Z,17.27
2022-12-31T00:20:04.179Z,16.73
2022-12-31T00:22:34.828Z,16.90
2022-12-31T00:25:07.729Z,16.05
2022-12-31T00:27:38.347Z,16.30
2022-12-31T00:30:11.322Z,16.23
2022-12-31T00:32:41.895Z,17.00
2022-12-31T00:35:12.604Z,16.95
2022-12-31T00:37:44.248Z,16.62
2022-12-31T00:40:14.925Z,16.67
2022-12-31T00:42:46.070Z,15.58
2022-12-31T00:45:16.781Z,15.23
2022-12-31T00:47:47.362Z,16.50
2022-12-31T00:50:18.197Z,16.75
2022-12-31T00:52:48.749Z,16.25
2022-12-31T00:55:20.080Z,16.55
2022-12-31T00:57:53.829Z,15.23
2022-12-31T01:00:24.779Z,14.53
2022-12-31T01:02:55.612Z,14.75
2022-12-31T01:05:26.628Z,14.47
2022-12-31T01:07:57.877Z,14.83
2022-12-31T01:10:46.948Z,14.33
2022-12-31T01:13:17.501Z,14.00
2022-12-31T01:15:48.675Z,13.83
2022-12-31T01:18:19.381Z,13.93
2022-12-31T01:20:50.369Z,13.50
2022-12-31T01:23:22.560Z,13.20
2022-12-31T01:25:53.217Z,12.90
2022-12-31T01:28:23.791Z,13.65
2022-12-31T01:30:54.684Z,14.03
2022-12-31T01:33:26.030Z,14.28
2022-12-31T01:35:57.140Z,14.58
2022-12-31T01:38:27.912Z,13.83
2022-12-31T01:40:58.521Z,13.85
2022-12-31T01:43:54.859Z,13.68
2022-12-31T01:46:47.290Z,13.28
2022-12-31T01:49:22.184Z,13.98
2022-12-31T01:51:58.379Z,13.38
2022-12-31T01:54:32.430Z,14.35
2022-12-31T01:57:05.499Z,13.38
2022-12-31T01:59:37.001Z,12.50
2022-12-31T02:02:07.838Z,12.50
2022-12-31T02:04:39.283Z,12.18
2022-12-31T02:07:11.200Z,12.18
2022-12-31T02:09:43.283Z,13.75
2022-12-31T02:12:14.079Z,13.40
2022-12-31T02:14:48.663Z,13.20
2022-12-31T02:17:28.057Z,12.45
2022-12-31T02:20:35.176Z,12.98
2022-12-31T02:23:21.136Z,13.30
2022-12-31T02:26:06.763Z,12.98
2022-12-31T02:28:50.234Z,11.85
2022-12-31T02:31:24.448Z,12.70
2022-12-31T02:33:58.219Z,12.53
2022-12-31T02:36:34.275Z,12.82
2022-12-31T02:39:07.409Z,12.55
2022-12-31T02:41:50.686Z,11.57
2022-12-31T02:44:31.059Z,11.30
2022-12-31T02:47:08.621Z,11.18
2022-12-31T02:49:45.332Z,11.60
2022-12-31T02:52:34.475Z,11.25
2022-12-31T02:55:24.932Z,11.40
2022-12-31T02:57:58.410Z,10.18
2022-12-31T03:00:49.497Z,10.40
2022-12-31T03:03:24.921Z,10.28
2022-12-31T03:08:27.545Z,10.10
2022-12-31T03:10:58.135Z,10.32
2022-12-31T03:13:28.721Z,9.63
2022-12-31T03:16:00.824Z,10.40
2022-12-31T03:18:49.720Z,9.78
2022-12-31T03:21:38.875Z,9.83
2022-12-31T03:24:27.744Z,9.20
2022-12-31T03:26:58.401Z,9.48
2022-12-31T03:29:30.130Z,9.43
2022-12-31T03:32:00.752Z,8.90
2022-12-31T03:34:31.340Z,9.23
2022-12-31T03:37:03.252Z,9.45
2022-12-31T03:39:33.913Z,9.90
2022-12-31T03:42:04.579Z,9.28
2022-12-31T03:44:35.153Z,8.75
2022-12-31T03:47:06.046Z,8.70
2022-12-31T03:49:36.938Z,8.48
2022-12-31T03:52:08.806Z,8.48
2022-12-31T03:54:39.510Z,8.83
2022-12-31T03:57:10.277Z,8.88
2022-12-31T03:59:40.896Z,8.45
2022-12-31T04:02:11.831Z,8.63
2022-12-31T04:04:42.515Z,8.58
2022-12-31T04:07:13.165Z,9.05
2022-12-31T04:09:43.716Z,8.88
2022-12-31T04:12:14.327Z,8.78
2022-12-31T04:14:45.018Z,8.48
2022-12-31T04:17:15.890Z,8.25
2022-12-31T04:19:46.471Z,7.72
2022-12-31T04:22:17.198Z,8.40
2022-12-31T04:24:47.883Z,8.30
2022-12-31T04:27:18.483Z,8.78
2022-12-31T04:29:49.120Z,8.40
2022-12-31T04:32:20.186Z,8.23
2022-12-31T04:34:50.713Z,9.30
2022-12-31T04:37:21.376Z,9.08
2022-12-31T04:39:53.193Z,8.25
2022-12-31T04:42:23.857Z,9.03
2022-12-31T04:44:54.416Z,8.05
2022-12-31T04:47:24.994Z,8.13
2022-12-31T04:49:55.620Z,7.72
2022-12-31T04:52:26.316Z,7.45
2022-12-31T04:54:56.893Z,7.53
2022-12-31T04:57:27.566Z,7.50
2022-12-31T04:59:59.268Z,8.00
2022-12-31T05:02:31.869Z,7.47
2022-12-31T05:05:02.853Z,7.58
2022-12-31T05:07:33.553Z,7.60
2022-12-31T05:10:06.350Z,8.05
2022-12-31T05:12:36.975Z,7.50
2022-12-31T05:15:08.832Z,7.33
2022-12-31T05:17:39.400Z,7.80
2022-12-31T05:20:10.702Z,6.72
2022-12-31T05:22:41.300Z,7.22
2022-12-31T05:25:11.953Z,7.12
2022-12-31T05:27:42.818Z,7.33
2022-12-31T05:30:15.210Z,7.35
2022-12-31T05:32:48.362Z,6.47
2022-12-31T05:35:20.523Z,6.62
2022-12-31T05:37:52.180Z,6.83
2022-12-31T05:40:22.911Z,7.17
2022-12-31T05:42:53.508Z,6.37
2022-12-31T05:45:30.403Z,6.37
2022-12-31T05:47:56.398Z,6.58
2022-12-31T05:50:26.981Z,6.22
2022-12-31T05:52:58.052Z,6.72
2022-12-31T05:55:28.652Z,6.20
2022-12-31T05:57:59.214Z,6.25
2022-12-31T06:00:29.815Z,6.08
2022-12-31T06:03:00.666Z,5.62
2022-12-31T06:05:31.624Z,5.75
2022-12-31T06:08:02.211Z,5.90
2022-12-31T06:10:32.961Z,5.78
2022-12-31T06:13:03.671Z,5.65
2022-12-31T06:15:34.236Z,5.85
2022-12-31T06:18:05.107Z,5.80
2022-12-31T06:20:39.812Z,6.10
2022-12-31T06:23:10.342Z,5.15
2022-12-31T06:25:40.998Z,5.47
2022-12-31T06:28:19.517Z,6.58
2022-12-31T06:30:43.843Z,6.17
2022-12-31T06:33:15.181Z,6.37
2022-12-31T06:35:45.777Z,6.25
2022-12-31T06:38:16.372Z,6.40
2022-12-31T06:40:48.241Z,6.17
2022-12-31T06:43:18.871Z,5.78
2022-12-31T06:45:50.039Z,5.85
2022-12-31T06:48:20.593Z,5.95
2022-12-31T06:50:51.323Z,6.00
2022-12-31T06:53:21.941Z,5.65
2022-12-31T06:55:53.097Z,5.65
2022-12-31T06:58:24.427Z,4.83
2022-12-31T07:01:04.986Z,5.00
2022-12-31T07:03:53.635Z,5.40
2022-12-31T07:06:36.346Z,4.97
2022-12-31T07:09:12.829Z,4.92
2022-12-31T07:11:58.426Z,5.53
2022-12-31T07:14:34.955Z,5.12
2022-12-31T07:17:17.740Z,5.55
2022-12-31T07:19:57.312Z,5.35
2022-12-31T07:22:24.123Z,5.62
2022-12-31T07:24:55.240Z,5.87
2022-12-31T07:27:43.812Z,6.03
2022-12-31T07:30:17.478Z,6.05
2022-12-31T07:33:09.446Z,6.30
2022-12-31T07:35:55.034Z,6.78
2022-12-31T07:38:31.363Z,6.37
2022-12-31T07:41:10.049Z,5.78
2022-12-31T07:44:05.524Z,6.20
2022-12-31T07:46:57.258Z,5.62
2022-12-31T07:49:29.757Z,6.15
2022-12-31T07:52:00.863Z,6.45
2022-12-31T07:54:31.606Z,5.80
2022-12-31T07:57:02.282Z,5.37
2022-12-31T07:59:52.409Z,5.87
2022-12-31T08:02:32.084Z,5.75
2022-12-31T08:05:35.109Z,5.08
2022-12-31T08:08:26.707Z,6.50
2022-12-31T08:11:02.910Z,5.95
2022-12-31T08:13:34.029Z,5.42
2022-12-31T08:16:05.350Z,5.50
2022-12-31T08:18:36.405Z,5.22
2022-12-31T08:21:32.766Z,4.70
2022-12-31T08:24:07.656Z,5.33
2022-12-31T08:26:57.697Z,5.50
2022-12-31T08:29:36.949Z,5.70
2022-12-31T08:32:27.282Z,5.45
2022-12-31T08:35:20.109Z,5.40
2022-12-31T08:37:53.587Z,5.30
2022-12-31T08:40:32.859Z,5.30
2022-12-31T08:43:30.932Z,5.22
2022-12-31T08:46:03.738Z,4.70
2022-12-31T08:48:43.736Z,5.47
2022-12-31T08:51:23.308Z,5.33
2022-12-31T08:53:55.472Z,5.33
2022-12-31T08:56:38.880Z,5.72
2022-12-31T08:59:30.724Z,5.50
2022-12-31T09:02:13.197Z,5.92
2022-12-31T09:04:52.489Z,5.70
2022-12-31T09:07:34.789Z,5.58
2022-12-31T09:10:09.548Z,5.37
2022-12-31T09:13:01.106Z,5.47
2022-12-31T09:16:01.484Z,5.08
2022-12-31T09:18:36.339Z,5.42
2022-12-31T09:21:07.466Z,4.85
2022-12-31T09:23:38.620Z,5.20
2022-12-31T09:26:42.115Z,5.20
2022-12-31T09:29:22.792Z,5.30
2022-12-31T09:32:12.573Z,5.00
2022-12-31T09:34:55.291Z,4.55
2022-12-31T09:37:46.652Z,5.47
2022-12-31T09:40:36.255Z,5.60
2022-12-31T09:43:41.710Z,5.30
2022-12-31T09:46:50.412Z,5.62
2022-12-31T09:49:41.748Z,6.12
2022-12-31T09:52:22.266Z,8.08
2022-12-31T09:55:01.680Z,9.53
2022-12-31T09:57:56.382Z,6.87
2022-12-31T10:00:35.883Z,6.95
2022-12-31T10:03:15.608Z,6.22
2022-12-31T10:06:04.201Z,6.53
2022-12-31T10:08:48.060Z,6.83
2022-12-31T10:11:33.771Z,6.97
2022-12-31T10:14:11.286Z,5.90
2022-12-31T10:17:01.695Z,4.70
2022-12-31T10:19:43.659Z,5.37
2022-12-31T10:22:36.573Z,5.87
2022-12-31T10:25:19.043Z,5.95
2022-12-31T10:27:58.385Z,6.53
2022-12-31T10:30:32.038Z,5.53
2022-12-31T10:33:39.412Z,6.33
2022-12-31T10:36:27.909Z,5.78
2022-12-31T10:39:14.480Z,5.83
2022-12-31T10:41:51.336Z,5.55
2022-12-31T10:44:47.340Z,4.67
2022-12-31T10:47:49.584Z,4.15
2022-12-31T10:50:51.700Z,4.22
2022-12-31T10:53:36.694Z,4.53
2022-12-31T10:56:19.491Z,4.70
2022-12-31T10:59:13.137Z,4.42
2022-12-31T11:02:04.699Z,4.42
2022-12-31T11:04:57.646Z,5.03
2022-12-31T11:07:31.021Z,5.45
2022-12-31T11:10:26.863Z,5.72
2022-12-31T11:13:10.584Z,4.97
2022-12-31T11:16:09.969Z,4.58
2022-12-31T11:18:43.468Z,5.03
2022-12-31T11:21:28.622Z,4.50
2022-12-31T11:24:18.693Z,4.37
2022-12-31T11:27:10.276Z,4.15
2022-12-31T11:29:55.934Z,3.83
2022-12-31T11:32:41.447Z,3.90
2022-12-31T11:35:28.390Z,4.17
2022-12-31T11:40:54.393Z,4.03
2022-12-31T11:43:30.017Z,3.72
2022-12-31T11:46:21.001Z,3.58
2022-12-31T11:48:54.459Z,3.47
2022-12-31T11:51:48.454Z,3.42
2022-12-31T11:57:37.140Z,3.60
2022-12-31T12:00:21.042Z,3.42
2022-12-31T12:02:54.368Z,3.50
2022-12-31T12:05:27.439Z,3.40
2022-12-31T12:07:59.399Z,3.62
2022-12-31T12:10:36.533Z,3.40
2022-12-31T12:15:37.212Z,3.65
2022-12-31T12:18:13.518Z,3.30
2022-12-31T12:20:46.909Z,3.83
2022-12-31T12:23:26.493Z,3.70
2022-12-31T12:25:58.367Z,3.42
2022-12-31T12:28:32.015Z,3.37
2022-12-31T12:31:05.338Z,3.65
2022-12-31T12:33:47.329Z,3.50
2022-12-31T12:36:19.575Z,3.27
2022-12-31T12:38:50.235Z,3.30
2022-12-31T12:41:25.513Z,3.08
2022-12-31T12:44:08.437Z,3.17
2022-12-31T12:46:48.380Z,3.30
2022-12-31T12:49:28.486Z,3.45
2022-12-31T12:52:11.977Z,3.10
2022-12-31T12:54:51.590Z,3.05
2022-12-31T12:57:34.160Z,2.55
2022-12-31T13:00:16.302Z,2.85
2022-12-31T13:03:15.572Z,2.50
2022-12-31T13:06:07.247Z,3.62
2022-12-31T13:09:14.103Z,2.92
2022-12-31T13:12:02.308Z,2.85
2022-12-31T13:14:41.563Z,2.87
2022-12-31T13:17:37.857Z,3.60
2022-12-31T13:20:29.987Z,3.45
2022-12-31T13:23:08.989Z,3.12
2022-12-31T13:26:11.254Z,3.20
2022-12-31T13:28:43.048Z,3.10
2022-12-31T13:31:19.344Z,3.05
2022-12-31T13:33:58.463Z,3.33
2022-12-31T13:36:32.891Z,3.72
2022-12-31T13:39:06.141Z,3.20
2022-12-31T13:41:39.509Z,3.20
2022-12-31T13:44:14.324Z,3.15
2022-12-31T13:46:49.081Z,3.55
2022-12-31T13:49:35.623Z,3.45
2022-12-31T13:52:21.111Z,3.05
2022-12-31T13:55:06.356Z,2.75
2022-12-31T13:57:45.649Z,2.98
2022-12-31T14:00:24.769Z,3.00
2022-12-31T14:03:02.206Z,2.90
2022-12-31T14:05:35.786Z,2.98
2022-12-31T14:08:07.914Z,3.42
2022-12-31T14:10:48.313Z,3.15
2022-12-31T14:13:39.661Z,3.30
2022-12-31T14:16:42.157Z,3.20
2022-12-31T14:19:46.138Z,3.22
2022-12-31T14:22:22.413Z,3.00
2022-12-31T14:24:53.688Z,3.05
2022-12-31T14:27:34.019Z,3.77
2022-12-31T14:30:17.354Z,3.33
2022-12-31T14:33:13.131Z,3.50
2022-12-31T14:35:49.628Z,3.58
2022-12-31T14:38:41.143Z,3.45
2022-12-31T14:41:47.362Z,4.12
2022-12-31T14:44:34.052Z,4.47
2022-12-31T14:47:23.777Z,3.77
2022-12-31T14:50:03.160Z,4.50
2022-12-31T14:52:51.665Z,4.67
2022-12-31T14:55:28.928Z,5.78
2022-12-31T14:58:27.649Z,5.80
2022-12-31T15:00:38.956Z,5.05
2022-12-31T15:03:18.150Z,6.15
2022-12-31T15:05:58.730Z,7.22
2022-12-31T15:08:46.408Z,7.33
2022-12-31T15:11:37.978Z,7.97
2022-12-31T15:14:38.033Z,6.90
2022-12-31T15:17:35.817Z,6.17
2022-12-31T15:20:16.717Z,5.50
2022-12-31T15:22:55.290Z,5.53
2022-12-31T15:25:28.860Z,5.75
2022-12-31T15:28:06.170Z,5.35
2022-12-31T15:30:51.091Z,5.20
2022-12-31T15:33:43.004Z,4.17
2022-12-31T15:36:16.603Z,5.45
2022-12-31T15:38:49.337Z,5.90
2022-12-31T15:41:32.065Z,5.78
2022-12-31T15:44:05.700Z,5.70
2022-12-31T15:46:39.264Z,5.53
2022-12-31T15:49:24.581Z,4.92
2022-12-31T15:52:10.000Z,4.92
2022-12-31T15:54:49.348Z,4.33
2022-12-31T15:57:28.682Z,5.60
2022-12-31T16:00:04.330Z,5.12
2022-12-31T16:02:35.941Z,5.50
2022-12-31T16:05:08.181Z,5.40
2022-12-31T16:07:41.483Z,5.62
2022-12-31T16:10:14.970Z,5.33
2022-12-31T16:12:46.342Z,5.45
2022-12-31T16:15:22.623Z,5.40
2022-12-31T16:18:07.791Z,5.87
2022-12-31T16:20:43.720Z,5.25
2022-12-31T16:23:24.079Z,5.10
2022-12-31T16:25:58.722Z,5.15
2022-12-31T16:28:34.377Z,6.50
2022-12-31T16:31:08.224Z,6.00
2022-12-31T16:33:38.794Z,6.15
2022-12-31T16:36:18.145Z,5.87
2022-12-31T16:38:51.720Z,6.22
2022-12-31T16:41:24.627Z,6.10
2022-12-31T16:43:55.888Z,5.85
2022-12-31T16:46:30.700Z,6.22
2022-12-31T16:49:04.055Z,6.37
2022-12-31T16:51:37.468Z,6.20
2022-12-31T16:54:17.028Z,6.70
2022-12-31T16:56:45.391Z,6.37
2022-12-31T16:59:24.779Z,6.70
2022-12-31T17:01:57.630Z,7.28
2022-12-31T17:04:28.688Z,6.62
2022-12-31T17:07:18.611Z,6.28
2022-12-31T17:09:51.823Z,5.78
2022-12-31T17:12:24.351Z,6.47
2022-12-31T17:14:54.930Z,6.25
2022-12-31T17:17:28.909Z,6.65
2022-12-31T17:20:01.617Z,6.22
2022-12-31T17:22:38.188Z,6.12
2022-12-31T17:25:11.840Z,5.95
2022-12-31T17:27:43.894Z,6.50
2022-12-31T17:30:35.480Z,7.78
2022-12-31T17:33:11.938Z,7.87
2022-12-31T17:35:47.528Z,6.95
2022-12-31T17:38:27.168Z,7.80
2022-12-31T17:41:09.677Z,7.40
2022-12-31T17:43:41.139Z,7.60
2022-12-31T17:46:18.631Z,7.15
2022-12-31T17:49:01.008Z,6.95
2022-12-31T17:51:31.625Z,6.92
2022-12-31T17:54:03.869Z,7.70
2022-12-31T17:56:34.579Z,7.83
2022-12-31T17:59:07.253Z,7.97
2022-12-31T18:01:38.049Z,8.45
2022-12-31T18:04:11.869Z,7.70
2022-12-31T18:06:42.932Z,8.50
2022-12-31T18:09:13.698Z,7.92
2022-12-31T18:11:46.265Z,7.72
2022-12-31T18:14:17.648Z,8.28
2022-12-31T18:16:48.863Z,8.15
2022-12-31T18:19:45.590Z,7.87
2022-12-31T18:21:52.186Z,8.75
2022-12-31T18:24:26.004Z,8.65
2022-12-31T18:26:55.476Z,8.10
2022-12-31T18:29:26.728Z,8.70
2022-12-31T18:31:57.627Z,9.15
2022-12-31T18:34:28.778Z,7.78
2022-12-31T18:37:00.467Z,8.15
2022-12-31T18:39:32.374Z,7.70
2022-12-31T18:42:02.934Z,7.35
2022-12-31T18:44:33.536Z,7.35
2022-12-31T18:47:04.503Z,7.70
2022-12-31T18:49:35.099Z,7.55
2022-12-31T18:52:07.325Z,7.12
2022-12-31T18:54:37.969Z,7.17
2022-12-31T18:57:08.623Z,6.92
2022-12-31T18:59:39.414Z,6.15
2022-12-31T19:02:21.560Z,6.65
2022-12-31T19:04:52.335Z,6.92
2022-12-31T19:07:24.023Z,6.80
2022-12-31T19:09:58.464Z,6.40
2022-12-31T19:12:27.148Z,6.12
2022-12-31T19:14:57.740Z,6.92
2022-12-31T19:17:29.666Z,6.97
2022-12-31T19:20:01.798Z,7.37
2022-12-31T19:22:32.370Z,6.85
2022-12-31T19:25:02.997Z,7.08
2022-12-31T19:27:33.966Z,6.67
2022-12-31T19:30:04.775Z,6.87
2022-12-31T19:32:35.360Z,6.87
2022-12-31T19:35:06.540Z,6.87
2022-12-31T19:37:37.086Z,6.35
2022-12-31T19:40:11.114Z,6.45
2022-12-31T19:42:43.460Z,6.50
2022-12-31T19:45:18.031Z,6.20
2022-12-31T19:47:49.007Z,5.92
2022-12-31T19:50:22.753Z,7.03
2022-12-31T19:52:56.518Z,6.55
2022-12-31T19:55:27.949Z,6.25
2022-12-31T19:57:58.580Z,6.65
2022-12-31T20:00:29.176Z,6.40
2022-12-31T20:03:00.038Z,6.05
2022-12-31T20:05:31.069Z,5.95
2022-12-31T20:08:02.670Z,7.00
2022-12-31T20:10:33.213Z,5.92
2022-12-31T20:13:03.813Z,5.22
2022-12-31T20:15:34.969Z,5.40
2022-12-31T20:18:06.684Z,5.55
2022-12-31T20:20:37.228Z,5.95
2022-12-31T20:23:07.795Z,5.10
2022-12-31T20:25:38.509Z,5.22
2022-12-31T20:28:09.030Z,5.10
2022-12-31T20:30:40.445Z,5.30
2022-12-31T20:33:17.326Z,4.62
2022-12-31T20:35:43.506Z,5.40
2022-12-31T20:38:14.228Z,4.70
2022-12-31T20:40:47.148Z,5.22
2022-12-31T20:43:18.665Z,4.72
2022-12-31T20:45:49.272Z,4.75
2022-12-31T20:48:20.234Z,4.90
2022-12-31T20:50:58.848Z,4.95
2022-12-31T20:53:29.583Z,4.78
2022-12-31T20:56:01.715Z,5.12
2022-12-31T20:58:33.657Z,7.97
2022-12-31T21:01:09.494Z,8.88
2022-12-31T21:06:15.287Z,5.65
2022-12-31T21:08:46.135Z,5.30
2022-12-31T21:11:34.880Z,5.53
2022-12-31T21:14:07.082Z,4.95
2022-12-31T21:16:37.976Z,4.83
2022-12-31T21:19:09.761Z,4.47
2022-12-31T21:21:41.348Z,4.78
2022-12-31T21:24:12.385Z,4.75
2022-12-31T21:26:42.920Z,5.28
2022-12-31T21:29:13.535Z,5.50
2022-12-31T21:31:45.493Z,5.42
2022-12-31T21:34:16.062Z,5.05
2022-12-31T21:36:46.637Z,4.65
2022-12-31T21:39:17.194Z,4.75
2022-12-31T21:41:51.904Z,5.35
2022-12-31T21:44:27.034Z,4.87
2022-12-31T21:47:36.448Z,4.40
2022-12-31T21:49:50.609Z,4.50
2022-12-31T21:52:27.423Z,5.22
2022-12-31T21:55:18.299Z,4.65
2022-12-31T22:00:43.232Z,4.62
2022-12-31T22:03:29.970Z,4.45
2022-12-31T22:06:06.310Z,4.55
2022-12-31T22:08:38.406Z,4.65
2022-12-31T22:11:11.840Z,5.90
2022-12-31T22:13:43.107Z,5.28
2022-12-31T22:16:14.252Z,11.97
2022-12-31T22:18:45.289Z,5.72
2022-12-31T22:21:21.527Z,45.10
2022-12-31T22:23:54.538Z,7.80
2022-12-31T22:26:29.071Z,5.75
2022-12-31T22:28:59.944Z,5.72
2022-12-31T22:31:32.122Z,4.80
2022-12-31T22:34:02.756Z,4.83
2022-12-31T22:36:33.344Z,5.25
2022-12-31T22:39:03.935Z,5.37
2022-12-31T22:41:35.807Z,5.37
2022-12-31T22:44:07.140Z,5.45
2022-12-31T22:46:37.947Z,5.60
2022-12-31T22:49:10.043Z,5.55
2022-12-31T22:51:55.753Z,6.08
2022-12-31T22:54:13.794Z,6.37
2022-12-31T22:56:44.470Z,6.25
2022-12-31T22:59:15.085Z,7.80
2022-12-31T23:01:46.017Z,7.92
2022-12-31T23:04:16.847Z,19.75
2022-12-31T23:06:47.567Z,16.60
2022-12-31T23:09:36.741Z,9.88
2022-12-31T23:12:09.251Z,7.17
2022-12-31T23:14:57.797Z,6.47
2022-12-31T23:17:46.914Z,6.20
2022-12-31T23:20:39.225Z,8.78
2022-12-31T23:23:15.403Z,8.28
2022-12-31T23:25:49.008Z,7.80
2022-12-31T23:28:22.868Z,7.70
2022-12-31T23:30:54.049Z,7.10
2022-12-31T23:33:27.705Z,6.80
2022-12-31T23:36:08.598Z,6.55
2022-12-31T23:38:39.145Z,6.30
2022-12-31T23:41:18.599Z,6.80
2022-12-31T23:43:49.276Z,6.58
2022-12-31T23:46:20.037Z,7.92
2022-12-31T23:48:52.055Z,7.62
2022-12-31T23:51:22.930Z,8.23
2022-12-31T23:53:53.545Z,7.80
2022-12-31T23:56:25.669Z,7.05
2022-12-31T23:58:57.616Z,7.47
